Time;durP1;ratioP1;P1;durP2;ratioP2;P2;SDS_P1;SDS_P2;PMS_P1;PMS_P2;Temp;Humidity;BMP_temperature;BMP_pressure;BME280_temperature;BME280_humidity;BME280_pressure;Samples;Min_cycle;Max_cycle;Signal;HPM_P1;HPM_P2
2021/11/18 00:02:04;;;;;;;22.50;20.20;;;;;;;6.30;76.90;100947.63;108364;1285;24338;-77
2021/11/18 00:04:33;;;;;;;23.60;21.00;;;;;;;6.31;77.04;100948.40;108404;1285;23071;-77
2021/11/18 00:07:02;;;;;;;24.60;22.00;;;;;;;6.31;76.99;100949.23;108569;1285;22024;-77
2021/11/18 00:09:31;;;;;;;23.40;21.10;;;;;;;6.32;76.92;100949.86;108348;1285;22087;-77
2021/11/18 00:12:00;;;;;;;26.40;22.90;;;;;;;6.33;76.92;100950.33;108419;1285;23074;-77
2021/11/18 00:14:31;;;;;;;24.80;22.10;;;;;;;6.34;76.98;100952.48;108157;1288;22002;-78
2021/11/18 00:17:00;;;;;;;23.10;20.70;;;;;;;6.34;76.94;100947.64;108049;1288;23046;-78
2021/11/18 00:19:29;;;;;;;25.50;22.60;;;;;;;6.33;76.97;100946.14;108083;1288;22032;-78
2021/11/18 00:21:59;;;;;;;29.00;23.90;;;;;;;6.33;77.03;100946.49;108092;1286;23083;-78
2021/11/18 00:24:28;;;;;;;26.20;23.50;;;;;;;6.33;77.06;100947.84;108068;1288;22462;-77
2021/11/18 00:27:00;;;;;;;28.50;23.70;;;;;;;6.31;77.04;100950.31;107762;1293;22004;-77
2021/11/18 00:29:30;;;;;;;27.60;24.70;;;;;;;6.31;77.16;100957.18;107733;1293;23806;-77
2021/11/18 00:31:59;;;;;;;32.30;26.80;;;;;;;6.29;77.06;100955.05;107777;1291;23624;-78
2021/11/18 00:34:28;;;;;;;30.10;26.00;;;;;;;6.28;77.22;100956.00;108042;1291;24315;-77
2021/11/18 00:36:57;;;;;;;29.30;26.30;;;;;;;6.26;77.27;100956.70;107988;1291;24409;-76
2021/11/18 00:39:26;;;;;;;30.20;26.60;;;;;;;6.26;77.36;100950.73;108094;1291;22062;-76
2021/11/18 00:41:55;;;;;;;35.30;28.40;;;;;;;6.27;77.46;100954.17;107628;1294;22034;-77
2021/11/18 00:44:24;;;;;;;35.10;29.30;;;;;;;6.27;77.41;100953.41;107362;1297;22040;-76
2021/11/18 00:46:54;;;;;;;34.30;28.00;;;;;;;6.25;77.39;100955.38;106838;1303;22098;-77
2021/11/18 00:49:23;;;;;;;36.80;29.20;;;;;;;6.25;77.57;100965.02;107066;1302;22044;-77
2021/11/18 00:51:53;;;;;;;34.90;30.20;;;;;;;6.26;77.70;100972.42;107194;1299;21992;-77
2021/11/18 00:54:24;;;;;;;32.30;28.80;;;;;;;6.27;77.73;100972.17;107287;1298;22790;-77
2021/11/18 00:56:55;;;;;;;35.70;27.90;;;;;;;6.28;77.80;100970.89;107208;1299;23640;-77
2021/11/18 00:59:24;;;;;;;31.80;27.60;;;;;;;6.29;77.83;100969.58;107278;1294;22037;-77
2021/11/18 01:01:56;;;;;;;35.30;28.70;;;;;;;6.29;77.78;100974.66;107748;1291;22416;-77
2021/11/18 01:04:30;;;;;;;35.20;28.60;;;;;;;6.29;77.78;100976.95;108129;1285;24994;-77
2021/11/18 01:06:59;;;;;;;33.90;29.60;;;;;;;6.27;77.70;100974.61;108402;1285;22038;-77
2021/11/18 01:09:28;;;;;;;37.80;30.30;;;;;;;6.25;77.80;100974.08;108206;1285;24370;-76
2021/11/18 01:11:58;;;;;;;34.20;30.50;;;;;;;6.26;77.97;100974.90;108434;1283;22028;-76
2021/11/18 01:14:28;;;;;;;32.50;28.20;;;;;;;6.27;77.93;100976.23;108299;1285;22033;-77
2021/11/18 01:16:58;;;;;;;35.90;30.90;;;;;;;6.28;78.00;100983.14;108029;1289;23669;-77
2021/11/18 01:19:31;;;;;;;34.20;30.50;;;;;;;6.29;78.07;100990.90;108110;1289;22061;-77
2021/11/18 01:22:07;;;;;;;34.60;30.30;;;;;;;6.31;78.12;100990.73;108079;1290;24325;-77
2021/11/18 01:24:40;;;;;;;31.50;27.80;;;;;;;6.32;78.03;100992.36;107991;1291;22053;-77
2021/11/18 01:27:28;;;;;;;31.70;28.00;;;;;;;6.32;77.93;100989.45;107617;1294;23899;-76
2021/11/18 01:30:15;;;;;;;32.10;28.60;;;;;;;6.32;77.99;100992.25;107662;1294;23804;-75
2021/11/18 01:32:45;;;;;;;32.00;28.60;;;;;;;6.33;78.03;100988.84;107644;1294;22035;-77
2021/11/18 01:35:14;;;;;;;29.80;26.60;;;;;;;6.35;78.12;100995.09;107620;1294;22427;-76
2021/11/18 01:37:44;;;;;;;32.30;28.80;;;;;;;6.38;78.08;101002.10;107669;1294;21993;-77
2021/11/18 01:40:22;;;;;;;32.80;26.50;;;;;;;6.39;77.97;100999.93;107646;1294;22028;-77
2021/11/18 01:42:55;;;;;;;34.70;27.80;;;;;;;6.38;77.88;101002.06;107967;1291;24571;-77
2021/11/18 01:45:29;;;;;;;34.20;27.60;;;;;;;6.38;77.99;101003.10;107936;1286;22006;-76
2021/11/18 01:47:59;;;;;;;27.50;24.60;;;;;;;6.40;77.98;101006.33;108394;1285;23463;-76
2021/11/18 01:50:31;;;;;;;29.10;25.80;;;;;;;6.39;77.89;101007.92;108358;1285;23137;-76
2021/11/18 01:53:05;;;;;;;26.80;24.00;;;;;;;6.40;77.99;101008.02;108434;1285;22828;-77
2021/11/18 01:55:36;;;;;;;29.00;24.60;;;;;;;6.42;77.86;101013.88;108105;1288;23092;-77
2021/11/18 01:58:07;;;;;;;25.20;22.30;;;;;;;6.42;77.94;101014.16;108207;1287;21979;-77
2021/11/18 02:00:57;;;;;;;26.80;23.60;;;;;;;6.42;77.84;101014.70;108018;1288;23592;-77
2021/11/18 02:03:27;;;;;;;29.10;22.70;;;;;;;6.42;77.75;101012.42;108036;1288;23719;-77
2021/11/18 02:06:33;;;;;;;25.10;22.40;;;;;;;6.41;77.79;101015.51;108226;1288;23728;-77
2021/11/18 02:09:10;;;;;;;23.80;21.20;;;;;;;6.40;77.77;101018.73;108097;1288;23675;-78
2021/11/18 02:11:47;;;;;;;23.80;21.30;;;;;;;6.40;77.83;101016.81;108219;1288;22548;-78
2021/11/18 02:14:21;;;;;;;25.80;20.50;;;;;;;6.40;77.86;101021.85;108243;1284;23742;-78
2021/11/18 02:16:53;;;;;;;22.20;20.00;;;;;;;6.39;77.72;101023.30;108436;1284;22322;-78
2021/11/18 02:19:23;;;;;;;24.30;21.80;;;;;;;6.40;77.80;101016.65;108394;1285;22024;-77
2021/11/18 02:21:53;;;;;;;24.10;21.70;;;;;;;6.40;77.78;101017.85;108042;1291;23050;-78
2021/11/18 02:24:42;;;;;;;24.70;21.20;;;;;;;6.42;77.66;101015.73;108049;1291;21957;-78
2021/11/18 02:27:20;;;;;;;20.60;18.20;;;;;;;6.43;77.75;101019.01;108078;1291;22002;-78
2021/11/18 02:29:52;;;;;;;21.70;19.50;;;;;;;6.43;77.67;101018.27;107399;1296;22008;-78
2021/11/18 02:32:29;;;;;;;23.90;20.70;;;;;;;6.44;77.57;101015.59;107455;1297;22394;-77
2021/11/18 02:35:08;;;;;;;20.40;17.80;;;;;;;6.45;77.54;101019.50;107645;1295;23697;-77
2021/11/18 02:37:38;;;;;;;20.80;18.30;;;;;;;6.46;77.50;101016.96;107364;1297;22013;-77
2021/11/18 02:40:10;;;;;;;25.20;22.60;;;;;;;6.47;77.45;101015.86;107563;1291;22403;-76
2021/11/18 02:42:41;;;;;;;24.00;21.50;;;;;;;6.48;77.46;101019.95;107830;1291;22043;-77
2021/11/18 02:45:18;;;;;;;22.60;19.90;;;;;;;6.49;77.37;101022.40;107692;1291;21992;-77
2021/11/18 02:47:47;;;;;;;21.10;19.00;;;;;;;6.49;77.36;101020.23;107923;1286;23119;-76
2021/11/18 02:50:22;;;;;;;23.30;21.10;;;;;;;6.51;77.34;101024.13;108359;1284;21986;-76
2021/11/18 02:52:51;;;;;;;22.00;19.70;;;;;;;6.52;77.24;101022.77;108307;1285;22876;-76
2021/11/18 02:55:29;;;;;;;19.90;17.30;;;;;;;6.51;77.08;101023.71;108468;1284;21995;-76
2021/11/18 02:57:59;;;;;;;19.70;16.90;;;;;;;6.51;77.00;101026.36;108332;1285;23083;-77
2021/11/18 03:00:37;;;;;;;21.70;16.90;;;;;;;6.50;76.99;101024.14;108525;1285;23771;-76
2021/11/18 03:03:06;;;;;;;21.50;17.20;;;;;;;6.50;76.99;101020.30;108304;1285;22000;-77
2021/11/18 03:05:36;;;;;;;21.80;19.10;;;;;;;6.51;77.01;101022.35;108377;1285;21989;-78
2021/11/18 03:08:05;;;;;;;27.20;24.30;;;;;;;6.53;76.96;101020.66;108452;1285;22067;-77
2021/11/18 03:10:36;;;;;;;26.30;22.60;;;;;;;6.53;76.83;101017.27;108445;1285;23720;-77
2021/11/18 03:13:06;;;;;;;22.10;18.10;;;;;;;6.52;76.70;101021.40;108327;1285;21955;-77
2021/11/18 03:15:35;;;;;;;21.30;18.90;;;;;;;6.53;76.81;101020.45;108425;1285;22014;-77
2021/11/18 03:18:06;;;;;;;21.20;17.20;;;;;;;6.52;76.60;101024.23;108355;1284;22012;-77
2021/11/18 03:20:41;;;;;;;19.00;17.00;;;;;;;6.51;76.69;101021.86;108356;1285;22831;-77
2021/11/18 03:23:11;;;;;;;21.10;17.40;;;;;;;6.51;76.83;101021.99;108264;1285;21992;-77
2021/11/18 03:25:41;;;;;;;19.70;17.60;;;;;;;6.52;76.73;101028.06;108365;1285;23608;-77
2021/11/18 03:28:24;;;;;;;22.30;16.40;;;;;;;6.52;76.67;101027.20;108375;1279;22115;-77
2021/11/18 03:30:56;;;;;;;21.30;17.50;;;;;;;6.50;76.58;101030.30;108397;1285;21985;-76
2021/11/18 03:33:31;;;;;;;18.80;16.30;;;;;;;6.49;76.70;101028.27;108420;1285;23056;-77
2021/11/18 03:36:01;;;;;;;16.50;14.90;;;;;;;6.50;76.61;101032.08;108368;1284;21987;-77
2021/11/18 03:38:33;;;;;;;19.40;16.50;;;;;;;6.48;76.65;101028.93;108455;1285;23701;-77
2021/11/18 03:41:21;;;;;;;18.70;15.80;;;;;;;6.47;76.61;101028.67;108205;1288;22442;-77
2021/11/18 03:43:56;;;;;;;26.20;16.20;;;;;;;6.47;76.71;101030.20;108251;1288;23824;-76
2021/11/18 03:46:35;;;;;;;17.50;15.10;;;;;;;6.49;76.79;101034.11;108085;1288;22047;-77
2021/11/18 03:49:10;;;;;;;20.50;14.40;;;;;;;6.51;76.82;101036.01;108241;1288;22024;-76
2021/11/18 03:51:47;;;;;;;19.30;15.10;;;;;;;6.52;76.65;101029.66;108216;1288;23045;-76
2021/11/18 03:54:19;;;;;;;18.00;15.20;;;;;;;6.51;76.54;101028.65;108201;1288;21993;-76
2021/11/18 03:56:50;;;;;;;16.70;14.90;;;;;;;6.50;76.42;101029.09;108224;1288;22384;-76
2021/11/18 03:59:28;;;;;;;17.70;15.80;;;;;;;6.46;76.43;101024.36;108294;1285;22006;-76
2021/11/18 04:02:00;;;;;;;16.90;15.10;;;;;;;6.45;76.49;101021.15;108283;1284;23589;-77
2021/11/18 04:04:40;;;;;;;18.40;14.80;;;;;;;6.45;76.59;101024.11;108354;1285;22214;-77
2021/11/18 04:07:12;;;;;;;17.60;13.50;;;;;;;6.46;76.71;101031.52;108236;1284;22048;-76
2021/11/18 04:09:43;;;;;;;19.40;15.90;;;;;;;6.47;76.53;101034.42;108412;1285;21995;-76
2021/11/18 04:12:15;;;;;;;19.70;15.70;;;;;;;6.47;76.55;101030.61;108393;1283;23594;-76
2021/11/18 04:14:45;;;;;;;19.20;14.50;;;;;;;6.45;76.50;101029.16;108328;1285;23614;-77
2021/11/18 04:17:16;;;;;;;17.80;14.40;;;;;;;6.44;76.52;101032.72;108260;1285;23055;-76
2021/11/18 04:19:45;;;;;;;19.70;14.50;;;;;;;6.45;76.56;101038.25;108432;1284;23051;-77
2021/11/18 04:22:15;;;;;;;17.60;15.30;;;;;;;6.44;76.54;101038.30;108401;1284;21986;-76
2021/11/18 04:24:46;;;;;;;18.80;14.00;;;;;;;6.45;76.64;101041.35;108472;1285;21999;-76
2021/11/18 04:27:16;;;;;;;20.60;15.40;;;;;;;6.45;76.47;101046.82;107748;1292;23891;-76
2021/11/18 04:29:46;;;;;;;19.30;16.00;;;;;;;6.44;76.45;101049.39;107950;1291;22095;-77
2021/11/18 04:32:22;;;;;;;19.20;14.70;;;;;;;6.43;76.44;101049.62;107824;1291;23008;-76
2021/11/18 04:34:55;;;;;;;20.70;14.50;;;;;;;6.43;76.54;101048.73;107950;1291;22028;-77
2021/11/18 04:37:25;;;;;;;18.50;15.50;;;;;;;6.43;76.53;101052.10;107716;1291;22087;-77
2021/11/18 04:39:54;;;;;;;18.30;14.30;;;;;;;6.44;76.57;101052.13;108012;1291;22301;-77
2021/11/18 04:42:25;;;;;;;17.60;14.30;;;;;;;6.46;76.55;101051.33;107699;1294;22021;-77
2021/11/18 04:45:13;;;;;;;20.50;15.20;;;;;;;6.46;76.42;101052.88;107813;1288;22000;-79
2021/11/18 04:47:43;;;;;;;22.40;15.70;;;;;;;6.46;76.53;101063.32;108043;1288;22001;-77
2021/11/18 04:50:14;;;;;;;26.70;20.10;;;;;;;6.50;76.67;101065.46;108246;1288;21996;-77
2021/11/18 04:52:43;;;;;;;21.40;16.50;;;;;;;6.52;76.53;101069.17;108181;1288;22466;-78
2021/11/18 04:55:19;;;;;;;19.00;14.70;;;;;;;6.52;76.45;101070.39;107567;1294;22014;-77
2021/11/18 04:57:50;;;;;;;18.20;14.00;;;;;;;6.54;76.46;101069.50;107716;1294;22787;-77
2021/11/18 05:00:29;;;;;;;17.90;13.80;;;;;;;6.58;76.54;101069.21;107787;1290;23093;-77
2021/11/18 05:02:58;;;;;;;20.40;15.00;;;;;;;6.61;76.45;101065.67;107991;1290;22878;-77
2021/11/18 05:05:28;;;;;;;20.30;14.50;;;;;;;6.63;76.45;101062.00;107890;1291;22010;-77
2021/11/18 05:08:00;;;;;;;;;;;;;;;6.65;76.34;101067.60;107529;1297;22040;-77
2021/11/18 05:10:30;;;;;;;26.00;15.90;;;;;;;6.58;76.42;101069.54;107547;1296;22015;-78
2021/11/18 05:13:00;;;;;;;18.10;14.60;;;;;;;6.59;76.42;101069.48;107772;1290;23723;-77
2021/11/18 05:15:40;;;;;;;22.00;17.10;;;;;;;6.60;76.34;101080.59;108098;1291;22022;-78
2021/11/18 05:18:11;;;;;;;21.50;16.40;;;;;;;6.63;76.28;101087.40;107669;1294;22008;-77
2021/11/18 05:20:41;;;;;;;23.90;17.90;;;;;;;6.65;76.34;101079.02;107681;1294;22013;-78
2021/11/18 05:23:13;;;;;;;23.80;17.70;;;;;;;6.67;76.23;101082.83;107661;1294;22262;-78
2021/11/18 05:25:52;;;;;;;20.80;15.90;;;;;;;6.67;76.23;101074.95;107750;1290;22060;-78
2021/11/18 05:28:26;;;;;;;24.20;16.80;;;;;;;6.68;76.14;101077.17;108146;1286;22005;-78
2021/11/18 05:31:02;;;;;;;23.10;16.70;;;;;;;6.69;76.04;101080.40;107810;1293;22040;-77
2021/11/18 05:33:37;;;;;;;26.00;18.10;;;;;;;6.71;76.04;101078.85;107694;1294;22018;-78
2021/11/18 05:36:08;;;;;;;24.80;16.10;;;;;;;6.73;76.02;101080.64;107782;1294;23055;-78
2021/11/18 05:38:38;;;;;;;26.90;16.40;;;;;;;6.72;75.96;101082.23;107803;1293;22007;-77
2021/11/18 05:41:07;;;;;;;23.50;16.60;;;;;;;6.74;75.99;101083.11;107824;1294;22077;-78
2021/11/18 05:43:42;;;;;;;24.00;18.30;;;;;;;6.76;75.88;101084.74;107862;1289;23071;-77
2021/11/18 05:46:16;;;;;;;21.30;16.40;;;;;;;6.78;75.93;101082.50;108113;1289;22011;-78
2021/11/18 05:48:46;;;;;;;23.50;16.90;;;;;;;6.80;75.96;101086.13;108080;1289;23052;-77
2021/11/18 05:51:16;;;;;;;22.60;16.30;;;;;;;6.83;75.94;101090.83;108074;1289;23675;-78
2021/11/18 05:53:48;;;;;;;29.40;18.60;;;;;;;6.85;75.94;101086.13;107836;1293;24353;-77
2021/11/18 05:56:21;;;;;;;29.70;17.00;;;;;;;6.87;75.85;101083.65;108111;1283;191598;-77
2021/11/18 05:58:53;;;;;;;22.20;16.00;;;;;;;6.89;75.81;101085.45;108354;1288;22090;-77
2021/11/18 06:01:29;;;;;;;27.20;17.40;;;;;;;6.90;75.86;101083.02;108300;1288;23031;-78
2021/11/18 06:04:00;;;;;;;27.90;17.40;;;;;;;6.92;75.76;101088.19;108283;1286;22008;-77
2021/11/18 06:06:39;;;;;;;28.00;18.10;;;;;;;6.91;75.59;101096.10;108270;1291;22786;-77
2021/11/18 06:09:08;;;;;;;25.80;18.40;;;;;;;6.92;75.83;101100.06;108134;1291;21998;-77
2021/11/18 06:11:40;;;;;;;23.80;16.40;;;;;;;6.94;75.72;101100.27;108004;1289;22007;-76
2021/11/18 06:14:19;;;;;;;20.50;15.30;;;;;;;6.94;75.61;101109.52;108063;1289;23142;-77
2021/11/18 06:16:51;;;;;;;24.60;16.80;;;;;;;6.93;75.60;101113.63;108018;1290;22122;-77
2021/11/18 06:19:20;;;;;;;24.50;17.20;;;;;;;6.92;75.55;101109.86;108138;1289;22973;-77
2021/11/18 06:21:55;;;;;;;23.10;16.70;;;;;;;6.91;75.58;101109.77;108024;1291;23048;-77
2021/11/18 06:24:28;;;;;;;19.00;15.10;;;;;;;6.91;75.62;101108.71;108079;1288;21989;-76
2021/11/18 06:26:58;;;;;;;23.40;14.70;;;;;;;6.90;75.44;101112.33;108386;1285;21991;-76
2021/11/18 06:29:33;;;;;;;21.40;14.00;;;;;;;6.89;75.43;101120.47;108001;1291;22073;-76
2021/11/18 06:32:05;;;;;;;;;;;;;;;6.89;75.56;101118.73;108050;1291;22019;-76
2021/11/18 06:34:38;;;;;;;20.80;13.40;;;;;;;6.81;75.55;101116.02;107696;1294;22004;-76
2021/11/18 06:37:10;;;;;;;21.30;13.90;;;;;;;6.81;75.49;101121.10;107640;1295;23807;-76
2021/11/18 06:39:42;;;;;;;23.20;14.80;;;;;;;6.82;75.51;101119.37;107573;1297;22255;-76
2021/11/18 06:42:12;;;;;;;23.70;15.60;;;;;;;6.84;75.51;101123.61;107577;1297;23077;-77
2021/11/18 06:44:46;;;;;;;24.10;16.90;;;;;;;6.85;75.41;101122.50;107533;1296;22003;-77
2021/11/18 06:47:16;;;;;;;22.80;16.60;;;;;;;6.85;75.38;101129.15;107582;1294;21993;-77
2021/11/18 06:49:46;;;;;;;20.30;14.30;;;;;;;6.86;75.32;101134.69;107702;1294;22051;-77
2021/11/18 06:52:17;;;;;;;20.90;13.20;;;;;;;6.86;75.40;101135.90;107578;1291;22041;-77
2021/11/18 06:54:49;;;;;;;20.20;14.60;;;;;;;6.86;75.37;101132.23;108110;1288;22132;-78
2021/11/18 06:57:19;;;;;;;20.60;14.30;;;;;;;6.87;75.36;101133.92;107775;1294;22033;-77
2021/11/18 06:59:49;;;;;;;21.20;15.20;;;;;;;6.86;75.25;101130.66;107792;1289;22142;-76
2021/11/18 07:02:18;;;;;;;27.60;15.50;;;;;;;6.86;75.21;101135.73;107840;1291;23707;-76
2021/11/18 07:04:49;;;;;;;22.70;14.40;;;;;;;6.86;75.16;101141.52;107725;1292;22004;-76
2021/11/18 07:07:19;;;;;;;23.10;14.40;;;;;;;6.86;75.19;101138.89;107921;1291;22053;-76
2021/11/18 07:09:52;;;;;;;21.50;15.40;;;;;;;6.86;75.27;101137.85;107948;1292;22014;-75
2021/11/18 07:12:29;;;;;;;19.30;13.80;;;;;;;6.93;75.47;101141.14;107895;1291;23148;-75
2021/11/18 07:14:59;;;;;;;26.20;15.00;;;;;;;6.99;75.37;101139.56;107785;1287;22479;-74
2021/11/18 07:17:30;;;;;;;23.00;16.00;;;;;;;7.02;75.19;101138.79;108427;1286;23092;-75
2021/11/18 07:20:08;;;;;;;19.40;14.20;;;;;;;7.03;74.91;101141.30;108192;1288;23692;-75
2021/11/18 07:22:39;;;;;;;30.10;16.30;;;;;;;7.03;74.68;101137.85;108435;1285;21995;-75
2021/11/18 07:25:21;;;;;;;21.20;16.60;;;;;;;7.03;74.69;101144.70;108409;1285;23087;-74
2021/11/18 07:27:52;;;;;;;23.90;16.00;;;;;;;7.04;74.65;101147.75;108010;1290;23091;-74
2021/11/18 07:30:24;;;;;;;25.00;15.50;;;;;;;7.04;74.57;101150.72;108090;1289;22759;-74
2021/11/18 07:32:53;;;;;;;21.50;14.10;;;;;;;7.03;74.56;101150.60;108045;1290;22035;-76
2021/11/18 07:35:28;;;;;;;29.20;16.60;;;;;;;7.03;74.56;101147.80;108015;1290;22066;-74
2021/11/18 07:37:58;;;;;;;25.10;15.80;;;;;;;7.05;74.48;101148.57;108139;1290;22008;-75
2021/11/18 07:40:34;;;;;;;26.50;16.80;;;;;;;7.09;74.67;101148.91;107998;1290;22125;-76
2021/11/18 07:43:12;;;;;;;20.90;14.70;;;;;;;7.14;74.70;101148.39;108028;1291;22820;-75
2021/11/18 07:46:15;;;;;;;22.10;15.30;;;;;;;7.18;74.63;101146.24;107569;1294;22003;-75
2021/11/18 07:48:49;;;;;;;23.50;16.50;;;;;;;7.24;74.61;101150.98;107769;1294;22748;-74
2021/11/18 07:51:24;;;;;;;24.40;16.50;;;;;;;7.31;74.47;101153.73;107731;1293;22060;-75
2021/11/18 07:53:54;;;;;;;28.60;15.70;;;;;;;7.36;74.23;101156.31;107730;1294;23611;-75
2021/11/18 07:56:25;;;;;;;22.30;16.40;;;;;;;7.40;74.07;101159.71;107893;1290;23126;-74
2021/11/18 07:58:54;;;;;;;27.10;16.40;;;;;;;7.43;73.85;101158.71;107701;1291;23394;-74
2021/11/18 08:01:26;;;;;;;23.20;16.70;;;;;;;7.46;73.72;101165.87;107440;1296;22762;-74
2021/11/18 08:03:55;;;;;;;34.00;18.60;;;;;;;7.50;73.73;101170.06;107251;1297;23072;-75
2021/11/18 08:06:45;;;;;;;24.50;15.10;;;;;;;7.55;73.63;101175.27;107393;1297;22037;-75
2021/11/18 08:09:15;;;;;;;26.40;17.20;;;;;;;7.59;73.44;101182.11;107212;1296;22094;-74
2021/11/18 08:11:52;;;;;;;21.60;15.70;;;;;;;7.63;73.32;101189.19;107455;1296;22080;-73
2021/11/18 08:14:23;;;;;;;23.40;14.80;;;;;;;7.65;73.15;101195.84;107383;1295;22247;-73
2021/11/18 08:16:55;;;;;;;18.50;12.70;;;;;;;7.69;73.08;101201.63;107123;1297;22030;-75
2021/11/18 08:19:26;;;;;;;24.10;13.00;;;;;;;7.73;73.07;101203.05;107518;1293;22337;-74
2021/11/18 08:21:58;;;;;;;17.40;13.20;;;;;;;7.77;72.95;101205.61;107982;1286;23041;-74
2021/11/18 08:24:31;;;;;;;23.70;13.70;;;;;;;7.81;72.76;101209.34;108351;1286;22038;-74
2021/11/18 08:27:02;;;;;;;23.70;13.80;;;;;;;7.83;72.58;101213.41;108371;1285;21997;-74
2021/11/18 08:29:38;;;;;;;18.20;11.40;;;;;;;7.84;72.39;101220.00;108308;1285;22161;-74
2021/11/18 08:32:08;;;;;;;20.90;12.20;;;;;;;7.84;72.28;101222.61;108496;1283;23088;-75
2021/11/18 08:34:45;;;;;;;23.70;13.20;;;;;;;7.85;72.07;101221.86;108441;1285;23610;-75
2021/11/18 08:37:19;;;;;;;23.20;13.20;;;;;;;7.84;71.99;101231.70;108372;1285;22031;-74
2021/11/18 08:39:50;;;;;;;20.60;12.90;;;;;;;7.83;71.74;101234.81;108501;1285;22079;-75
2021/11/18 08:42:23;;;;;;;23.40;13.80;;;;;;;7.82;71.75;101239.27;108481;1284;23717;-74
2021/11/18 08:44:58;;;;;;;18.30;12.40;;;;;;;7.83;71.56;101243.23;108422;1283;22007;-75
2021/11/18 08:47:30;;;;;;;24.50;14.70;;;;;;;7.83;71.47;101243.42;108362;1285;23698;-75
2021/11/18 08:50:14;;;;;;;22.70;13.70;;;;;;;7.81;71.32;101246.60;108446;1283;22963;-75
2021/11/18 08:52:52;;;;;;;20.10;14.30;;;;;;;7.77;71.23;101253.73;108398;1284;22057;-75
2021/11/18 08:55:33;;;;;;;21.70;14.90;;;;;;;7.75;71.28;101255.68;108493;1284;22018;-75
2021/11/18 08:58:07;;;;;;;22.50;14.00;;;;;;;7.73;71.26;101253.51;108368;1285;22027;-75
2021/11/18 09:00:54;;;;;;;25.30;15.60;;;;;;;7.71;71.29;101259.84;108384;1284;21995;-76
2021/11/18 09:03:29;;;;;;;28.30;16.10;;;;;;;7.71;71.37;101247.73;108073;1289;22181;-75
2021/11/18 09:05:58;;;;;;;30.30;15.50;;;;;;;7.72;71.46;101243.77;108099;1291;23046;-75
2021/11/18 09:08:29;;;;;;;20.20;15.10;;;;;;;7.75;71.48;101244.25;108075;1291;21997;-76
2021/11/18 09:11:09;;;;;;;22.60;15.60;;;;;;;7.76;71.41;101252.95;108052;1291;22002;-76
2021/11/18 09:13:44;;;;;;;20.20;13.40;;;;;;;7.76;71.53;101253.83;108082;1289;22005;-76
2021/11/18 09:16:17;;;;;;;19.20;14.50;;;;;;;7.78;71.61;101252.41;108052;1291;23584;-76
2021/11/18 09:19:13;;;;;;;31.80;15.90;;;;;;;7.85;71.74;101248.85;107707;1294;22039;-74
2021/11/18 09:21:46;;;;;;;20.80;14.40;;;;;;;7.89;71.59;101240.10;107815;1289;23756;-74
2021/11/18 09:24:25;;;;;;;19.40;13.90;;;;;;;7.91;71.36;101231.91;108040;1291;23054;-75
2021/11/18 09:27:14;;;;;;;20.60;14.80;;;;;;;7.93;71.26;101230.30;108305;1290;22028;-76
2021/11/18 09:29:47;;;;;;;21.10;15.90;;;;;;;7.91;70.85;101227.69;108108;1289;23640;-76
2021/11/18 09:32:37;;;;;;;21.00;14.00;;;;;;;7.91;71.07;101224.54;108163;1288;22005;-75
2021/11/18 09:35:24;;;;;;;21.60;15.10;;;;;;;7.97;71.29;101221.22;107612;1294;23625;-76
2021/11/18 09:37:57;;;;;;;24.10;16.50;;;;;;;8.07;71.57;101216.67;107565;1294;21996;-75
2021/11/18 09:40:40;;;;;;;19.80;14.20;;;;;;;8.23;71.79;101213.33;107633;1294;21985;-75
2021/11/18 09:43:51;;;;;;;21.20;13.00;;;;;;;8.42;71.52;101221.03;107672;1294;21977;-75
2021/11/18 09:47:05;;;;;;;20.90;14.10;;;;;;;8.52;70.91;101221.09;107607;1295;23739;-75
2021/11/18 09:50:29;;;;;;;22.60;13.80;;;;;;;8.58;70.24;101218.84;107626;1292;22135;-74
2021/11/18 09:53:56;;;;;;;18.10;12.80;;;;;;;8.60;69.69;101212.53;107275;1297;23069;-75
2021/11/18 09:57:00;;;;;;;21.80;14.80;;;;;;;8.61;69.44;101210.60;107372;1297;22613;-75
2021/11/18 10:00:22;;;;;;;19.60;14.20;;;;;;;8.65;69.20;101216.25;107569;1292;22463;-75
2021/11/18 10:03:12;;;;;;;19.10;11.00;;;;;;;8.73;69.20;101221.00;107621;1294;22008;-75
2021/11/18 10:06:00;;;;;;;16.90;10.90;;;;;;;8.79;68.81;101230.50;107363;1299;22505;-74
2021/11/18 10:08:47;;;;;;;19.60;11.40;;;;;;;8.76;68.16;101231.81;107193;1300;23732;-74
2021/11/18 10:11:51;;;;;;;23.70;12.70;;;;;;;8.73;68.06;101231.20;107402;1294;22011;-74
2021/11/18 10:15:07;;;;;;;17.90;10.60;;;;;;;8.73;67.98;101230.82;107706;1291;23136;-75
2021/11/18 10:17:49;;;;;;;20.00;12.10;;;;;;;8.70;67.70;101225.27;107504;1297;23157;-74
2021/11/18 10:20:35;;;;;;;23.10;11.40;;;;;;;8.69;67.73;101223.79;107503;1295;23074;-75
2021/11/18 10:23:15;;;;;;;17.10;11.30;;;;;;;8.73;68.09;101222.05;107282;1295;22468;-79
2021/11/18 10:25:49;;;;;;;25.20;11.60;;;;;;;8.85;68.35;101214.48;107647;1294;23681;-76
2021/11/18 10:28:21;;;;;;;18.90;10.40;;;;;;;9.00;68.45;101216.36;107531;1295;22004;-76
2021/11/18 10:31:54;;;;;;;19.50;10.70;;;;;;;9.20;68.76;101218.06;107636;1294;23609;-75
2021/11/18 10:35:08;;;;;;;15.20;10.40;;;;;;;9.37;67.77;101218.23;106969;1303;22061;-76
2021/11/18 10:37:43;;;;;;;20.60;12.40;;;;;;;9.38;66.96;101215.20;106360;1307;22261;-76
2021/11/18 10:40:26;;;;;;;23.80;15.30;;;;;;;9.38;66.91;101219.63;106078;1308;22086;-82
2021/11/18 10:43:17;;;;;;;21.20;13.00;;;;;;;9.48;67.41;101210.62;106511;1308;22129;-82
2021/11/18 10:46:58;;;;;;;21.20;11.90;;;;;;;9.66;66.99;101211.05;107122;1307;544078;-87
2021/11/18 10:49:47;;;;;;;18.70;11.10;;;;;;;10.20;71.94;101212.89;108211;1291;22490;-78
2021/11/18 10:52:46;;;;;;;18.80;12.10;;;;;;;10.93;71.16;101211.77;107436;1296;22003;-78
2021/11/18 10:55:35;;;;;;;22.00;13.30;;;;;;;11.52;69.08;101207.59;107666;1296;22462;-79
2021/11/18 10:58:29;;;;;;;23.10;11.70;;;;;;;11.87;65.52;101207.10;107877;1296;21982;-79
2021/11/18 11:01:26;;;;;;;13.00;8.60;;;;;;;11.52;60.12;101191.33;108031;1285;22014;-78
2021/11/18 11:04:00;;;;;;;25.30;13.70;;;;;;;10.99;59.25;101200.96;108172;1285;24085;-78
2021/11/18 11:06:43;;;;;;;17.30;12.00;;;;;;;10.65;60.10;101212.55;108361;1288;23695;-82
2021/11/18 11:09:18;;;;;;;22.90;12.40;;;;;;;10.44;60.87;101219.66;108436;1287;23579;-79
2021/11/18 11:12:17;;;;;;;24.00;13.50;;;;;;;10.29;61.67;101231.62;108468;1282;22754;-79
2021/11/18 11:15:27;;;;;;;17.50;12.00;;;;;;;10.15;62.17;101220.74;108311;1288;23736;-78
2021/11/18 11:18:15;;;;;;;28.60;12.50;;;;;;;10.08;62.92;101213.48;108240;1293;23744;-79
2021/11/18 11:21:56;;;;;;;23.50;13.60;;;;;;;10.17;63.84;101206.89;107696;1295;22008;-79
2021/11/18 11:25:05;;;;;;;20.10;12.60;;;;;;;10.26;63.58;101201.14;107600;1294;22048;-76
2021/11/18 11:27:54;;;;;;;18.90;10.80;;;;;;;10.27;63.13;101204.14;107741;1294;22767;-75
2021/11/18 11:30:29;;;;;;;22.50;12.70;;;;;;;10.23;62.99;101203.81;107873;1293;24623;-75
2021/11/18 11:33:34;;;;;;;16.00;11.50;;;;;;;10.21;63.04;101199.79;108083;1288;21999;-75
2021/11/18 11:36:26;;;;;;;16.50;10.40;;;;;;;10.17;63.05;101201.71;107657;1291;22018;-75
2021/11/18 11:39:42;;;;;;;20.20;11.00;;;;;;;10.12;62.98;101197.27;107968;1291;23075;-74
2021/11/18 11:42:50;;;;;;;16.80;9.90;;;;;;;10.02;63.28;101189.42;108056;1290;22019;-74
2021/11/18 11:45:55;;;;;;;21.90;10.30;;;;;;;9.99;63.74;101187.62;108056;1291;22348;-77
2021/11/18 11:48:47;;;;;;;21.10;12.30;;;;;;;9.97;63.76;101184.86;107961;1292;22067;-75
2021/11/18 11:51:59;;;;;;;26.40;14.50;;;;;;;9.91;63.68;101185.04;108027;1291;22049;-75
2021/11/18 11:54:55;;;;;;;21.40;12.90;;;;;;;9.82;63.89;101176.89;108020;1290;23716;-75
2021/11/18 11:57:39;;;;;;;23.50;12.60;;;;;;;9.76;63.91;101179.58;107906;1287;21996;-75